sensor_id;sensor_type;location;lat;lon;timestamp;temperature;humidity
68439;SHT31;55421;51.600;5.718;2024-03-02T00:01:22;8.76;73.51
68439;SHT31;55421;51.600;5.718;2024-03-02T00:03:49;8.74;73.68
68439;SHT31;55421;51.600;5.718;2024-03-02T00:06:16;8.75;73.80
68439;SHT31;55421;51.600;5.718;2024-03-02T00:08:47;8.77;73.80
68439;SHT31;55421;51.600;5.718;2024-03-02T00:11:14;8.81;73.80
68439;SHT31;55421;51.600;5.718;2024-03-02T00:13:41;8.85;73.80
68439;SHT31;55421;51.600;5.718;2024-03-02T00:16:08;8.88;73.80
68439;SHT31;55421;51.600;5.718;2024-03-02T00:18:35;8.89;73.80
68439;SHT31;55421;51.600;5.718;2024-03-02T00:21:02;8.88;73.81
68439;SHT31;55421;51.600;5.718;2024-03-02T00:23:32;8.89;73.92
68439;SHT31;55421;51.600;5.718;2024-03-02T00:26:01;8.88;74.01
68439;SHT31;55421;51.600;5.718;2024-03-02T00:28:31;8.87;74.07
68439;SHT31;55421;51.600;5.718;2024-03-02T00:31:05;8.89;74.00
68439;SHT31;55421;51.600;5.718;2024-03-02T00:33:35;8.93;73.93
68439;SHT31;55421;51.600;5.718;2024-03-02T00:36:11;9.01;73.90
68439;SHT31;55421;51.600;5.718;2024-03-02T00:38:46;9.05;73.92
68439;SHT31;55421;51.600;5.718;2024-03-02T00:41:20;9.10;74.02
68439;SHT31;55421;51.600;5.718;2024-03-02T00:46:39;9.18;73.73
68439;SHT31;55421;51.600;5.718;2024-03-02T00:49:12;9.17;74.40
68439;SHT31;55421;51.600;5.718;2024-03-02T00:51:46;9.13;74.78
68439;SHT31;55421;51.600;5.718;2024-03-02T00:54:21;9.11;74.98
68439;SHT31;55421;51.600;5.718;2024-03-02T00:56:54;9.08;75.16
68439;SHT31;55421;51.600;5.718;2024-03-02T00:59:23;9.05;75.27
68439;SHT31;55421;51.600;5.718;2024-03-02T01:01:49;9.02;75.42
68439;SHT31;55421;51.600;5.718;2024-03-02T01:04:16;8.99;75.50
68439;SHT31;55421;51.600;5.718;2024-03-02T01:06:43;8.97;75.64
68439;SHT31;55421;51.600;5.718;2024-03-02T01:09:09;8.95;75.70
68439;SHT31;55421;51.600;5.718;2024-03-02T01:11:38;8.98;75.77
68439;SHT31;55421;51.600;5.718;2024-03-02T01:14:05;8.99;75.81
68439;SHT31;55421;51.600;5.718;2024-03-02T01:16:32;8.99;75.85
68439;SHT31;55421;51.600;5.718;2024-03-02T01:18:58;8.99;75.85
68439;SHT31;55421;51.600;5.718;2024-03-02T01:21:25;8.97;75.80
68439;SHT31;55421;51.600;5.718;2024-03-02T01:23:51;8.93;75.84
68439;SHT31;55421;51.600;5.718;2024-03-02T01:26:18;8.90;75.93
68439;SHT31;55421;51.600;5.718;2024-03-02T01:28:44;8.85;75.98
68439;SHT31;55421;51.600;5.718;2024-03-02T01:31:11;8.83;75.99
68439;SHT31;55421;51.600;5.718;2024-03-02T01:33:37;8.81;76.00
68439;SHT31;55421;51.600;5.718;2024-03-02T01:36:04;8.82;75.99
68439;SHT31;55421;51.600;5.718;2024-03-02T01:38:30;8.84;75.98
68439;SHT31;55421;51.600;5.718;2024-03-02T01:40:57;8.85;75.93
68439;SHT31;55421;51.600;5.718;2024-03-02T01:43:24;8.85;75.93
68439;SHT31;55421;51.600;5.718;2024-03-02T01:45:52;8.84;75.88
68439;SHT31;55421;51.600;5.718;2024-03-02T01:48:19;8.82;75.94
68439;SHT31;55421;51.600;5.718;2024-03-02T01:50:45;8.79;75.90
68439;SHT31;55421;51.600;5.718;2024-03-02T01:53:12;8.77;75.91
68439;SHT31;55421;51.600;5.718;2024-03-02T01:55:38;8.73;75.93
68439;SHT31;55421;51.600;5.718;2024-03-02T01:58:04;8.71;76.03
68439;SHT31;55421;51.600;5.718;2024-03-02T02:00:31;8.74;76.09
68439;SHT31;55421;51.600;5.718;2024-03-02T02:02:58;8.77;76.07
68439;SHT31;55421;51.600;5.718;2024-03-02T02:05:25;8.77;76.12
68439;SHT31;55421;51.600;5.718;2024-03-02T02:07:51;8.78;76.17
68439;SHT31;55421;51.600;5.718;2024-03-02T02:10:18;8.78;76.20
68439;SHT31;55421;51.600;5.718;2024-03-02T02:12:44;8.76;76.20
68439;SHT31;55421;51.600;5.718;2024-03-02T02:15:29;8.75;76.24
68439;SHT31;55421;51.600;5.718;2024-03-02T02:17:57;8.71;76.38
68439;SHT31;55421;51.600;5.718;2024-03-02T02:20:25;8.67;76.50
68439;SHT31;55421;51.600;5.718;2024-03-02T02:22:53;8.65;76.53
68439;SHT31;55421;51.600;5.718;2024-03-02T02:25:25;8.63;76.56
68439;SHT31;55421;51.600;5.718;2024-03-02T02:27:52;8.65;76.69
68439;SHT31;55421;51.600;5.718;2024-03-02T02:30:20;8.69;76.71
68439;SHT31;55421;51.600;5.718;2024-03-02T02:32:49;8.73;76.84
68439;SHT31;55421;51.600;5.718;2024-03-02T02:35:15;8.74;76.82
68439;SHT31;55421;51.600;5.718;2024-03-02T02:37:42;8.72;76.88
68439;SHT31;55421;51.600;5.718;2024-03-02T02:40:09;8.71;77.00
68439;SHT31;55421;51.600;5.718;2024-03-02T02:42:37;8.68;77.12
68439;SHT31;55421;51.600;5.718;2024-03-02T02:45:03;8.67;77.21
68439;SHT31;55421;51.600;5.718;2024-03-02T02:47:31;8.67;77.30
68439;SHT31;55421;51.600;5.718;2024-03-02T02:49:59;8.69;77.30
68439;SHT31;55421;51.600;5.718;2024-03-02T02:52:30;8.73;77.34
68439;SHT31;55421;51.600;5.718;2024-03-02T02:54:59;8.75;77.41
68439;SHT31;55421;51.600;5.718;2024-03-02T02:57:25;8.74;77.42
68439;SHT31;55421;51.600;5.718;2024-03-02T02:59:52;8.74;77.50
68439;SHT31;55421;51.600;5.718;2024-03-02T03:02:18;8.70;77.46
68439;SHT31;55421;51.600;5.718;2024-03-02T03:04:45;8.65;77.59
68439;SHT31;55421;51.600;5.718;2024-03-02T03:07:11;8.61;77.73
68439;SHT31;55421;51.600;5.718;2024-03-02T03:09:37;8.56;77.83
68439;SHT31;55421;51.600;5.718;2024-03-02T03:12:07;8.54;77.91
68439;SHT31;55421;51.600;5.718;2024-03-02T03:14:34;8.53;77.96
68439;SHT31;55421;51.600;5.718;2024-03-02T03:17:00;8.54;77.91
68439;SHT31;55421;51.600;5.718;2024-03-02T03:19:27;8.54;77.90
68439;SHT31;55421;51.600;5.718;2024-03-02T03:21:53;8.54;77.84
68439;SHT31;55421;51.600;5.718;2024-03-02T03:24:20;8.52;77.84
68439;SHT31;55421;51.600;5.718;2024-03-02T03:26:46;8.50;77.89
68439;SHT31;55421;51.600;5.718;2024-03-02T03:29:13;8.48;77.95
68439;SHT31;55421;51.600;5.718;2024-03-02T03:31:39;8.45;78.07
68439;SHT31;55421;51.600;5.718;2024-03-02T03:34:06;8.43;78.09
68439;SHT31;55421;51.600;5.718;2024-03-02T03:36:32;8.44;78.10
68439;SHT31;55421;51.600;5.718;2024-03-02T03:38:58;8.47;78.10
68439;SHT31;55421;51.600;5.718;2024-03-02T03:41:25;8.49;78.10
68439;SHT31;55421;51.600;5.718;2024-03-02T03:43:51;8.50;78.04
68439;SHT31;55421;51.600;5.718;2024-03-02T03:46:18;8.49;78.00
68439;SHT31;55421;51.600;5.718;2024-03-02T03:48:44;8.50;78.02
68439;SHT31;55421;51.600;5.718;2024-03-02T03:51:11;8.48;78.00
68439;SHT31;55421;51.600;5.718;2024-03-02T03:53:37;8.44;78.04
68439;SHT31;55421;51.600;5.718;2024-03-02T03:56:04;8.43;78.11
68439;SHT31;55421;51.600;5.718;2024-03-02T03:58:31;8.44;78.10
68439;SHT31;55421;51.600;5.718;2024-03-02T04:00:58;8.47;78.19
68439;SHT31;55421;51.600;5.718;2024-03-02T04:03:24;8.48;78.20
68439;SHT31;55421;51.600;5.718;2024-03-02T04:05:51;8.48;78.12
68439;SHT31;55421;51.600;5.718;2024-03-02T04:08:18;8.46;78.18
68439;SHT31;55421;51.600;5.718;2024-03-02T04:10:44;8.43;78.21
68439;SHT31;55421;51.600;5.718;2024-03-02T04:13:11;8.39;78.20
68439;SHT31;55421;51.600;5.718;2024-03-02T04:15:37;8.35;78.13
68439;SHT31;55421;51.600;5.718;2024-03-02T04:18:04;8.31;78.21
68439;SHT31;55421;51.600;5.718;2024-03-02T04:20:31;8.32;78.31
68439;SHT31;55421;51.600;5.718;2024-03-02T04:22:57;8.32;78.16
68439;SHT31;55421;51.600;5.718;2024-03-02T04:25:23;8.31;78.16
68439;SHT31;55421;51.600;5.718;2024-03-02T04:27:50;8.29;78.01
68439;SHT31;55421;51.600;5.718;2024-03-02T04:30:16;8.25;77.96
68439;SHT31;55421;51.600;5.718;2024-03-02T04:32:43;8.21;77.90
68439;SHT31;55421;51.600;5.718;2024-03-02T04:35:12;8.15;77.92
68439;SHT31;55421;51.600;5.718;2024-03-02T04:37:39;8.10;77.97
68439;SHT31;55421;51.600;5.718;2024-03-02T04:40:05;8.04;78.00
68439;SHT31;55421;51.600;5.718;2024-03-02T04:42:35;7.98;78.06
68439;SHT31;55421;51.600;5.718;2024-03-02T04:45:02;7.97;78.06
68439;SHT31;55421;51.600;5.718;2024-03-02T04:47:29;7.97;78.10
68439;SHT31;55421;51.600;5.718;2024-03-02T04:49:55;7.97;78.08
68439;SHT31;55421;51.600;5.718;2024-03-02T04:52:22;7.95;77.94
68439;SHT31;55421;51.600;5.718;2024-03-02T04:54:48;7.94;77.90
68439;SHT31;55421;51.600;5.718;2024-03-02T04:57:33;7.91;77.99
68439;SHT31;55421;51.600;5.718;2024-03-02T05:00:00;7.87;78.01
68439;SHT31;55421;51.600;5.718;2024-03-02T05:02:27;7.82;78.01
68439;SHT31;55421;51.600;5.718;2024-03-02T05:04:53;7.78;78.10
68439;SHT31;55421;51.600;5.718;2024-03-02T05:07:20;7.78;78.13
68439;SHT31;55421;51.600;5.718;2024-03-02T05:09:46;7.79;78.27
68439;SHT31;55421;51.600;5.718;2024-03-02T05:12:14;7.83;78.40
68439;SHT31;55421;51.600;5.718;2024-03-02T05:14:59;7.85;78.40
68439;SHT31;55421;51.600;5.718;2024-03-02T05:17:26;7.84;78.45
68439;SHT31;55421;51.600;5.718;2024-03-02T05:19:52;7.83;78.55
68439;SHT31;55421;51.600;5.718;2024-03-02T05:22:19;7.83;78.71
68439;SHT31;55421;51.600;5.718;2024-03-02T05:24:45;7.83;78.84
68439;SHT31;55421;51.600;5.718;2024-03-02T05:27:11;7.82;78.92
68439;SHT31;55421;51.600;5.718;2024-03-02T05:29:38;7.82;78.90
68439;SHT31;55421;51.600;5.718;2024-03-02T05:32:04;7.83;78.89
68439;SHT31;55421;51.600;5.718;2024-03-02T05:34:31;7.85;78.90
68439;SHT31;55421;51.600;5.718;2024-03-02T05:36:59;7.85;78.90
68439;SHT31;55421;51.600;5.718;2024-03-02T05:39:25;7.84;78.90
68439;SHT31;55421;51.600;5.718;2024-03-02T05:41:51;7.80;78.87
68439;SHT31;55421;51.600;5.718;2024-03-02T05:44:18;7.76;78.81
68439;SHT31;55421;51.600;5.718;2024-03-02T05:46:45;7.70;78.83
68439;SHT31;55421;51.600;5.718;2024-03-02T05:49:12;7.65;78.96
68439;SHT31;55421;51.600;5.718;2024-03-02T05:51:39;7.60;78.91
68439;SHT31;55421;51.600;5.718;2024-03-02T05:54:06;7.57;78.92
68439;SHT31;55421;51.600;5.718;2024-03-02T05:56:32;7.55;79.02
68439;SHT31;55421;51.600;5.718;2024-03-02T05:58:59;7.57;79.19
68439;SHT31;55421;51.600;5.718;2024-03-02T06:01:34;7.60;79.34
68439;SHT31;55421;51.600;5.718;2024-03-02T06:04:00;7.64;79.39
68439;SHT31;55421;51.600;5.718;2024-03-02T06:06:27;7.66;79.39
68439;SHT31;55421;51.600;5.718;2024-03-02T06:08:53;7.68;79.27
68439;SHT31;55421;51.600;5.718;2024-03-02T06:11:20;7.66;79.24
68439;SHT31;55421;51.600;5.718;2024-03-02T06:13:46;7.66;79.29
68439;SHT31;55421;51.600;5.718;2024-03-02T06:16:13;7.65;79.30
68439;SHT31;55421;51.600;5.718;2024-03-02T06:18:39;7.66;79.32
68439;SHT31;55421;51.600;5.718;2024-03-02T06:21:06;7.70;79.42
68439;SHT31;55421;51.600;5.718;2024-03-02T06:23:32;7.73;79.44
68439;SHT31;55421;51.600;5.718;2024-03-02T06:25:59;7.74;79.52
68439;SHT31;55421;51.600;5.718;2024-03-02T06:28:25;7.76;79.56
68439;SHT31;55421;51.600;5.718;2024-03-02T06:30:52;7.75;79.60
68439;SHT31;55421;51.600;5.718;2024-03-02T06:33:18;7.73;79.53
68439;SHT31;55421;51.600;5.718;2024-03-02T06:35:45;7.71;79.50
68439;SHT31;55421;51.600;5.718;2024-03-02T06:38:11;7.70;79.53
68439;SHT31;55421;51.600;5.718;2024-03-02T06:40:38;7.67;79.48
68439;SHT31;55421;51.600;5.718;2024-03-02T06:43:05;7.65;79.39
68439;SHT31;55421;51.600;5.718;2024-03-02T06:45:32;7.66;79.35
68439;SHT31;55421;51.600;5.718;2024-03-02T06:48:00;7.66;79.32
68439;SHT31;55421;51.600;5.718;2024-03-02T06:50:27;7.66;79.28
68439;SHT31;55421;51.600;5.718;2024-03-02T06:52:54;7.66;79.10
68439;SHT31;55421;51.600;5.718;2024-03-02T06:55:22;7.64;79.16
68439;SHT31;55421;51.600;5.718;2024-03-02T06:57:50;7.63;79.23
68439;SHT31;55421;51.600;5.718;2024-03-02T07:00:18;7.62;79.26
68439;SHT31;55421;51.600;5.718;2024-03-02T07:02:46;7.60;79.21
68439;SHT31;55421;51.600;5.718;2024-03-02T07:05:13;7.60;79.26
68439;SHT31;55421;51.600;5.718;2024-03-02T07:07:39;7.59;79.20
68439;SHT31;55421;51.600;5.718;2024-03-02T07:10:06;7.61;79.24
68439;SHT31;55421;51.600;5.718;2024-03-02T07:12:36;7.65;79.26
68439;SHT31;55421;51.600;5.718;2024-03-02T07:15:03;7.70;79.31
68439;SHT31;55421;51.600;5.718;2024-03-02T07:17:30;7.74;79.39
68439;SHT31;55421;51.600;5.718;2024-03-02T07:19:57;7.75;79.30
68439;SHT31;55421;51.600;5.718;2024-03-02T07:22:24;7.76;79.23
68439;SHT31;55421;51.600;5.718;2024-03-02T07:24:51;7.76;79.19
68439;SHT31;55421;51.600;5.718;2024-03-02T07:27:17;7.80;79.21
68439;SHT31;55421;51.600;5.718;2024-03-02T07:29:44;7.85;79.23
68439;SHT31;55421;51.600;5.718;2024-03-02T07:32:10;7.94;79.24
68439;SHT31;55421;51.600;5.718;2024-03-02T07:34:37;8.07;79.04
68439;SHT31;55421;51.600;5.718;2024-03-02T07:37:06;8.22;78.98
68439;SHT31;55421;51.600;5.718;2024-03-02T07:39:32;8.35;78.78
68439;SHT31;55421;51.600;5.718;2024-03-02T07:41:59;8.49;78.63
68439;SHT31;55421;51.600;5.718;2024-03-02T07:44:26;8.61;78.52
68439;SHT31;55421;51.600;5.718;2024-03-02T07:46:53;8.74;78.35
68439;SHT31;55421;51.600;5.718;2024-03-02T07:49:20;8.85;78.04
68439;SHT31;55421;51.600;5.718;2024-03-02T07:51:46;8.92;77.73
68439;SHT31;55421;51.600;5.718;2024-03-02T07:54:13;8.98;77.50
68439;SHT31;55421;51.600;5.718;2024-03-02T07:56:39;9.05;77.20
68439;SHT31;55421;51.600;5.718;2024-03-02T07:59:06;9.10;76.86
68439;SHT31;55421;51.600;5.718;2024-03-02T08:01:33;9.16;76.49
68439;SHT31;55421;51.600;5.718;2024-03-02T08:04:00;9.21;76.29
68439;SHT31;55421;51.600;5.718;2024-03-02T08:06:30;9.24;76.26
68439;SHT31;55421;51.600;5.718;2024-03-02T08:08:57;9.25;75.79
68439;SHT31;55421;51.600;5.718;2024-03-02T08:11:25;9.24;75.49
68439;SHT31;55421;51.600;5.718;2024-03-02T08:13:57;9.22;75.46
68439;SHT31;55421;51.600;5.718;2024-03-02T08:16:24;9.21;75.46
68439;SHT31;55421;51.600;5.718;2024-03-02T08:18:51;9.18;75.42
68439;SHT31;55421;51.600;5.718;2024-03-02T08:21:19;9.17;75.31
68439;SHT31;55421;51.600;5.718;2024-03-02T08:23:45;9.13;74.93
68439;SHT31;55421;51.600;5.718;2024-03-02T08:26:12;9.12;74.88
68439;SHT31;55421;51.600;5.718;2024-03-02T08:28:39;9.11;74.65
68439;SHT31;55421;51.600;5.718;2024-03-02T08:31:09;9.13;74.56
68439;SHT31;55421;51.600;5.718;2024-03-02T08:33:36;9.16;74.60
68439;SHT31;55421;51.600;5.718;2024-03-02T08:36:02;9.18;74.59
68439;SHT31;55421;51.600;5.718;2024-03-02T08:38:30;9.19;74.63
68439;SHT31;55421;51.600;5.718;2024-03-02T08:40:56;9.20;74.61
68439;SHT31;55421;51.600;5.718;2024-03-02T08:43:23;9.20;74.60
68439;SHT31;55421;51.600;5.718;2024-03-02T08:45:50;9.21;74.59
68439;SHT31;55421;51.600;5.718;2024-03-02T08:48:17;9.22;74.52
68439;SHT31;55421;51.600;5.718;2024-03-02T08:50:44;9.23;74.37
68439;SHT31;55421;51.600;5.718;2024-03-02T08:53:10;9.26;74.49
68439;SHT31;55421;51.600;5.718;2024-03-02T08:55:37;9.31;74.34
68439;SHT31;55421;51.600;5.718;2024-03-02T08:58:03;9.39;74.28
68439;SHT31;55421;51.600;5.718;2024-03-02T09:00:30;9.43;73.96
68439;SHT31;55421;51.600;5.718;2024-03-02T09:02:56;9.44;74.00
68439;SHT31;55421;51.600;5.718;2024-03-02T09:05:23;9.48;74.06
68439;SHT31;55421;51.600;5.718;2024-03-02T09:07:49;9.52;73.91
68439;SHT31;55421;51.600;5.718;2024-03-02T09:10:16;9.58;73.87
68439;SHT31;55421;51.600;5.718;2024-03-02T09:12:42;9.62;73.80
68439;SHT31;55421;51.600;5.718;2024-03-02T09:15:09;9.67;73.72
68439;SHT31;55421;51.600;5.718;2024-03-02T09:17:35;9.73;73.70
68439;SHT31;55421;51.600;5.718;2024-03-02T09:20:02;9.84;73.49
68439;SHT31;55421;51.600;5.718;2024-03-02T09:22:30;9.95;73.17
68439;SHT31;55421;51.600;5.718;2024-03-02T09:24:56;10.04;72.86
68439;SHT31;55421;51.600;5.718;2024-03-02T09:27:23;10.12;72.78
68439;SHT31;55421;51.600;5.718;2024-03-02T09:29:49;10.17;72.51
68439;SHT31;55421;51.600;5.718;2024-03-02T09:32:16;10.23;72.44
68439;SHT31;55421;51.600;5.718;2024-03-02T09:34:42;10.30;72.39
68439;SHT31;55421;51.600;5.718;2024-03-02T09:37:09;10.34;72.10
68439;SHT31;55421;51.600;5.718;2024-03-02T09:39:36;10.36;71.89
68439;SHT31;55421;51.600;5.718;2024-03-02T09:42:03;10.36;71.50
68439;SHT31;55421;51.600;5.718;2024-03-02T09:44:31;10.39;71.53
68439;SHT31;55421;51.600;5.718;2024-03-02T09:46:59;10.43;71.29
68439;SHT31;55421;51.600;5.718;2024-03-02T09:49:25;10.46;71.24
68439;SHT31;55421;51.600;5.718;2024-03-02T09:51:53;10.51;71.13
68439;SHT31;55421;51.600;5.718;2024-03-02T09:54:20;10.57;70.92
68439;SHT31;55421;51.600;5.718;2024-03-02T09:56:47;10.68;70.81
68439;SHT31;55421;51.600;5.718;2024-03-02T09:59:13;10.76;70.32
68439;SHT31;55421;51.600;5.718;2024-03-02T10:01:59;10.84;69.82
68439;SHT31;55421;51.600;5.718;2024-03-02T10:04:28;10.88;69.13
68439;SHT31;55421;51.600;5.718;2024-03-02T10:07:10;10.93;69.46
68439;SHT31;55421;51.600;5.718;2024-03-02T10:09:43;10.99;69.35
68439;SHT31;55421;51.600;5.718;2024-03-02T10:12:12;11.02;69.19
68439;SHT31;55421;51.600;5.718;2024-03-02T10:14:43;11.07;69.13
68439;SHT31;55421;51.600;5.718;2024-03-02T10:17:11;11.10;68.86
68439;SHT31;55421;51.600;5.718;2024-03-02T10:19:39;11.16;69.27
68439;SHT31;55421;51.600;5.718;2024-03-02T10:22:07;11.25;69.40
68439;SHT31;55421;51.600;5.718;2024-03-02T10:24:39;11.32;68.94
68439;SHT31;55421;51.600;5.718;2024-03-02T10:27:08;11.39;68.72
68439;SHT31;55421;51.600;5.718;2024-03-02T10:29:47;11.45;68.44
68439;SHT31;55421;51.600;5.718;2024-03-02T10:32:14;11.48;68.33
68439;SHT31;55421;51.600;5.718;2024-03-02T10:34:43;11.53;68.33
68439;SHT31;55421;51.600;5.718;2024-03-02T10:37:12;11.59;68.01
68439;SHT31;55421;51.600;5.718;2024-03-02T10:39:39;11.61;67.68
68439;SHT31;55421;51.600;5.718;2024-03-02T10:42:06;11.64;67.94
68439;SHT31;55421;51.600;5.718;2024-03-02T10:44:33;11.68;67.87
68439;SHT31;55421;51.600;5.718;2024-03-02T10:47:01;11.71;67.19
68439;SHT31;55421;51.600;5.718;2024-03-02T10:49:30;11.76;66.95
68439;SHT31;55421;51.600;5.718;2024-03-02T10:51:58;11.80;66.89
68439;SHT31;55421;51.600;5.718;2024-03-02T10:54:26;11.86;66.90
68439;SHT31;55421;51.600;5.718;2024-03-02T10:56:58;11.91;66.98
68439;SHT31;55421;51.600;5.718;2024-03-02T11:01:57;12.01;66.62
68439;SHT31;55421;51.600;5.718;2024-03-02T11:04:27;12.09;66.77
68439;SHT31;55421;51.600;5.718;2024-03-02T11:07:05;12.16;66.47
68439;SHT31;55421;51.600;5.718;2024-03-02T11:09:40;12.19;65.99
68439;SHT31;55421;51.600;5.718;2024-03-02T11:14:55;12.20;65.53
68439;SHT31;55421;51.600;5.718;2024-03-02T11:17:23;12.23;65.35
68439;SHT31;55421;51.600;5.718;2024-03-02T11:19:51;12.27;65.22
68439;SHT31;55421;51.600;5.718;2024-03-02T11:22:18;12.32;65.14
68439;SHT31;55421;51.600;5.718;2024-03-02T11:24:49;12.36;65.08
68439;SHT31;55421;51.600;5.718;2024-03-02T11:32:59;12.63;64.53
68439;SHT31;55421;51.600;5.718;2024-03-02T11:35:37;12.70;64.29
68439;SHT31;55421;51.600;5.718;2024-03-02T11:38:14;12.77;64.36
68439;SHT31;55421;51.600;5.718;2024-03-02T11:40:40;12.78;63.92
68439;SHT31;55421;51.600;5.718;2024-03-02T11:43:07;12.72;63.96
68439;SHT31;55421;51.600;5.718;2024-03-02T11:45:35;12.73;64.07
68439;SHT31;55421;51.600;5.718;2024-03-02T11:48:06;12.80;64.42
68439;SHT31;55421;51.600;5.718;2024-03-02T11:50:35;12.86;64.48
68439;SHT31;55421;51.600;5.718;2024-03-02T11:53:07;12.91;64.25
68439;SHT31;55421;51.600;5.718;2024-03-02T11:55:36;12.91;63.78
68439;SHT31;55421;51.600;5.718;2024-03-02T11:58:05;12.90;63.35
68439;SHT31;55421;51.600;5.718;2024-03-02T12:00:35;12.91;63.48
68439;SHT31;55421;51.600;5.718;2024-03-02T12:03:03;12.92;62.96
68439;SHT31;55421;51.600;5.718;2024-03-02T12:05:33;12.92;62.84
68439;SHT31;55421;51.600;5.718;2024-03-02T12:08:05;12.93;62.71
68439;SHT31;55421;51.600;5.718;2024-03-02T12:10:33;12.94;62.66
68439;SHT31;55421;51.600;5.718;2024-03-02T12:13:03;12.96;62.24
68439;SHT31;55421;51.600;5.718;2024-03-02T12:15:37;12.97;62.04
68439;SHT31;55421;51.600;5.718;2024-03-02T12:18:06;12.98;61.98
68439;SHT31;55421;51.600;5.718;2024-03-02T12:20:33;12.98;62.06
68439;SHT31;55421;51.600;5.718;2024-03-02T12:23:01;12.94;62.00
68439;SHT31;55421;51.600;5.718;2024-03-02T12:25:30;12.93;61.49
68439;SHT31;55421;51.600;5.718;2024-03-02T12:27:59;12.99;62.01
68439;SHT31;55421;51.600;5.718;2024-03-02T12:30:29;13.07;61.79
68439;SHT31;55421;51.600;5.718;2024-03-02T12:32:57;13.09;61.40
68439;SHT31;55421;51.600;5.718;2024-03-02T12:35:24;13.12;61.38
68439;SHT31;55421;51.600;5.718;2024-03-02T12:37:52;13.12;61.13
68439;SHT31;55421;51.600;5.718;2024-03-02T12:40:20;13.10;60.75
68439;SHT31;55421;51.600;5.718;2024-03-02T12:42:49;13.11;60.72
68439;SHT31;55421;51.600;5.718;2024-03-02T12:45:16;13.15;61.11
68439;SHT31;55421;51.600;5.718;2024-03-02T12:47:51;13.21;61.09
68439;SHT31;55421;51.600;5.718;2024-03-02T12:50:18;13.27;61.26
68439;SHT31;55421;51.600;5.718;2024-03-02T12:52:52;13.32;61.00
68439;SHT31;55421;51.600;5.718;2024-03-02T12:55:21;13.36;60.48
68439;SHT31;55421;51.600;5.718;2024-03-02T12:57:49;13.40;60.20
68439;SHT31;55421;51.600;5.718;2024-03-02T13:00:19;13.45;59.85
68439;SHT31;55421;51.600;5.718;2024-03-02T13:02:47;13.47;59.77
68439;SHT31;55421;51.600;5.718;2024-03-02T13:05:15;13.44;59.59
68439;SHT31;55421;51.600;5.718;2024-03-02T13:07:41;13.40;59.77
68439;SHT31;55421;51.600;5.718;2024-03-02T13:10:08;13.36;59.80
68439;SHT31;55421;51.600;5.718;2024-03-02T13:12:35;13.30;59.72
68439;SHT31;55421;51.600;5.718;2024-03-02T13:15:03;13.23;60.09
68439;SHT31;55421;51.600;5.718;2024-03-02T13:17:31;13.17;60.03
68439;SHT31;55421;51.600;5.718;2024-03-02T13:20:00;13.13;60.16
68439;SHT31;55421;51.600;5.718;2024-03-02T13:22:30;13.11;60.75
68439;SHT31;55421;51.600;5.718;2024-03-02T13:24:56;13.15;61.32
68439;SHT31;55421;51.600;5.718;2024-03-02T13:27:23;13.21;61.23
68439;SHT31;55421;51.600;5.718;2024-03-02T13:29:50;13.35;61.09
68439;SHT31;55421;51.600;5.718;2024-03-02T13:32:16;13.44;60.64
68439;SHT31;55421;51.600;5.718;2024-03-02T13:34:44;13.51;59.93
68439;SHT31;55421;51.600;5.718;2024-03-02T13:37:10;13.57;59.97
68439;SHT31;55421;51.600;5.718;2024-03-02T13:39:36;13.61;59.52
68439;SHT31;55421;51.600;5.718;2024-03-02T13:42:07;13.68;59.44
68439;SHT31;55421;51.600;5.718;2024-03-02T13:44:36;13.75;59.36
68439;SHT31;55421;51.600;5.718;2024-03-02T13:47:04;13.84;59.58
68439;SHT31;55421;51.600;5.718;2024-03-02T13:49:31;13.88;59.86
68439;SHT31;55421;51.600;5.718;2024-03-02T13:52:03;13.93;58.69
68439;SHT31;55421;51.600;5.718;2024-03-02T13:54:36;13.96;58.35
68439;SHT31;55421;51.600;5.718;2024-03-02T13:57:05;14.00;58.21
68439;SHT31;55421;51.600;5.718;2024-03-02T13:59:33;14.03;58.87
68439;SHT31;55421;51.600;5.718;2024-03-02T14:02:04;14.06;58.74
68439;SHT31;55421;51.600;5.718;2024-03-02T14:04:32;14.06;58.86
68439;SHT31;55421;51.600;5.718;2024-03-02T14:07:00;14.02;58.49
68439;SHT31;55421;51.600;5.718;2024-03-02T14:09:28;14.00;58.70
68439;SHT31;55421;51.600;5.718;2024-03-02T14:11:55;13.99;58.61
68439;SHT31;55421;51.600;5.718;2024-03-02T14:14:23;13.96;58.25
68439;SHT31;55421;51.600;5.718;2024-03-02T14:16:50;13.94;58.36
68439;SHT31;55421;51.600;5.718;2024-03-02T14:19:17;13.94;58.30
68439;SHT31;55421;51.600;5.718;2024-03-02T14:21:44;13.92;58.51
68439;SHT31;55421;51.600;5.718;2024-03-02T14:24:10;13.91;58.13
68439;SHT31;55421;51.600;5.718;2024-03-02T14:26:37;13.95;58.36
68439;SHT31;55421;51.600;5.718;2024-03-02T14:29:04;13.93;58.46
68439;SHT31;55421;51.600;5.718;2024-03-02T14:31:31;13.86;58.78
68439;SHT31;55421;51.600;5.718;2024-03-02T14:33:58;13.70;58.42
68439;SHT31;55421;51.600;5.718;2024-03-02T14:36:27;13.54;58.94
68439;SHT31;55421;51.600;5.718;2024-03-02T14:38:54;13.40;59.41
68439;SHT31;55421;51.600;5.718;2024-03-02T14:41:21;13.31;59.88
68439;SHT31;55421;51.600;5.718;2024-03-02T14:43:50;13.34;60.22
68439;SHT31;55421;51.600;5.718;2024-03-02T14:46:17;13.42;60.18
68439;SHT31;55421;51.600;5.718;2024-03-02T14:48:45;13.47;60.19
68439;SHT31;55421;51.600;5.718;2024-03-02T14:51:13;13.52;60.32
68439;SHT31;55421;51.600;5.718;2024-03-02T14:53:40;13.57;60.60
68439;SHT31;55421;51.600;5.718;2024-03-02T14:56:07;13.64;60.60
68439;SHT31;55421;51.600;5.718;2024-03-02T14:58:33;13.68;60.09
68439;SHT31;55421;51.600;5.718;2024-03-02T15:01:01;13.73;59.68
68439;SHT31;55421;51.600;5.718;2024-03-02T15:03:30;13.79;59.63
68439;SHT31;55421;51.600;5.718;2024-03-02T15:05:57;13.84;59.79
68439;SHT31;55421;51.600;5.718;2024-03-02T15:08:24;13.89;59.72
68439;SHT31;55421;51.600;5.718;2024-03-02T15:10:50;13.94;59.27
68439;SHT31;55421;51.600;5.718;2024-03-02T15:13:18;13.95;59.75
68439;SHT31;55421;51.600;5.718;2024-03-02T15:15:44;13.91;59.97
68439;SHT31;55421;51.600;5.718;2024-03-02T15:18:11;13.84;59.76
68439;SHT31;55421;51.600;5.718;2024-03-02T15:20:38;13.75;60.22
68439;SHT31;55421;51.600;5.718;2024-03-02T15:23:04;13.64;60.34
68439;SHT31;55421;51.600;5.718;2024-03-02T15:25:31;13.53;60.51
68439;SHT31;55421;51.600;5.718;2024-03-02T15:27:57;13.44;60.40
68439;SHT31;55421;51.600;5.718;2024-03-02T15:30:24;13.38;60.37
68439;SHT31;55421;51.600;5.718;2024-03-02T15:32:50;13.35;60.83
68439;SHT31;55421;51.600;5.718;2024-03-02T15:35:17;13.39;61.49
68439;SHT31;55421;51.600;5.718;2024-03-02T15:37:44;13.43;61.14
68439;SHT31;55421;51.600;5.718;2024-03-02T15:40:11;13.47;61.03
68439;SHT31;55421;51.600;5.718;2024-03-02T15:42:39;13.51;61.10
68439;SHT31;55421;51.600;5.718;2024-03-02T15:45:06;13.52;61.34
68439;SHT31;55421;51.600;5.718;2024-03-02T15:47:33;13.52;61.46
68439;SHT31;55421;51.600;5.718;2024-03-02T15:50:02;13.52;61.75
68439;SHT31;55421;51.600;5.718;2024-03-02T15:52:30;13.52;61.67
68439;SHT31;55421;51.600;5.718;2024-03-02T15:54:57;13.53;61.33
68439;SHT31;55421;51.600;5.718;2024-03-02T15:57:23;13.52;61.39